sensor_id;sensor_type;location;lat;lon;timestamp;pressure;altitude;pressure_sealevel;temperature;humidity
18755;BME280;35061;47.664;9.166;2022-10-16T00:01:25;101570.40;;;13.93;100.00
18755;BME280;35061;47.664;9.166;2022-10-16T00:03:54;101577.92;;;13.91;100.00
18755;BME280;35061;47.664;9.166;2022-10-16T00:06:22;101581.52;;;13.86;100.00
18755;BME280;35061;47.664;9.166;2022-10-16T00:08:50;101573.38;;;13.84;100.00
18755;BME280;35061;47.664;9.166;2022-10-16T00:11:24;101584.33;;;13.80;100.00
18755;BME280;35061;47.664;9.166;2022-10-16T00:13:58;101579.23;;;13.75;100.00
18755;BME280;35061;47.664;9.166;2022-10-16T00:16:27;101570.33;;;13.73;100.00
18755;BME280;35061;47.664;9.166;2022-10-16T00:18:55;101572.82;;;13.65;100.00
18755;BME280;35061;47.664;9.166;2022-10-16T00:21:25;101568.63;;;13.66;100.00
18755;BME280;35061;47.664;9.166;2022-10-16T00:23:56;101565.66;;;13.60;100.00
18755;BME280;35061;47.664;9.166;2022-10-16T00:26:25;101580.05;;;13.60;100.00
18755;BME280;35061;47.664;9.166;2022-10-16T00:28:53;101580.86;;;13.61;100.00
18755;BME280;35061;47.664;9.166;2022-10-16T00:31:22;101575.89;;;13.61;100.00
18755;BME280;35061;47.664;9.166;2022-10-16T00:33:51;101570.95;;;13.62;100.00
18755;BME280;35061;47.664;9.166;2022-10-16T00:36:21;101567.55;;;13.63;100.00
18755;BME280;35061;47.664;9.166;2022-10-16T00:38:54;101571.21;;;13.64;100.00
18755;BME280;35061;47.664;9.166;2022-10-16T00:41:23;101568.63;;;13.66;100.00
18755;BME280;35061;47.664;9.166;2022-10-16T00:44:00;101557.41;;;13.68;100.00
18755;BME280;35061;47.664;9.166;2022-10-16T00:46:40;101563.50;;;13.70;100.00
18755;BME280;35061;47.664;9.166;2022-10-16T00:49:15;101570.04;;;13.71;100.00
18755;BME280;35061;47.664;9.166;2022-10-16T00:51:49;101565.36;;;13.73;100.00
18755;BME280;35061;47.664;9.166;2022-10-16T00:54:21;101569.55;;;13.72;100.00
18755;BME280;35061;47.664;9.166;2022-10-16T00:56:51;101573.70;;;13.71;100.00
18755;BME280;35061;47.664;9.166;2022-10-16T00:59:23;101567.42;;;13.73;100.00
18755;BME280;35061;47.664;9.166;2022-10-16T01:01:53;101566.96;;;13.74;100.00
18755;BME280;35061;47.664;9.166;2022-10-16T01:04:21;101574.29;;;13.75;100.00
18755;BME280;35061;47.664;9.166;2022-10-16T01:07:00;101571.61;;;13.72;100.00
18755;BME280;35061;47.664;9.166;2022-10-16T01:09:38;101570.82;;;13.71;100.00
18755;BME280;35061;47.664;9.166;2022-10-16T01:12:10;101586.52;;;13.70;100.00
18755;BME280;35061;47.664;9.166;2022-10-16T01:17:14;101575.99;;;13.67;100.00
18755;BME280;35061;47.664;9.166;2022-10-16T01:22:25;101579.65;;;13.67;100.00
18755;BME280;35061;47.664;9.166;2022-10-16T01:25:01;101578.57;;;13.65;100.00
18755;BME280;35061;47.664;9.166;2022-10-16T01:27:35;101572.33;;;13.66;100.00
18755;BME280;35061;47.664;9.166;2022-10-16T01:30:15;101579.16;;;13.69;100.00
18755;BME280;35061;47.664;9.166;2022-10-16T01:33:23;101578.67;;;13.71;100.00
18755;BME280;35061;47.664;9.166;2022-10-16T01:35:43;101571.80;;;13.68;100.00
18755;BME280;35061;47.664;9.166;2022-10-16T01:38:20;101583.12;;;13.72;100.00
18755;BME280;35061;47.664;9.166;2022-10-16T01:40:54;101579.45;;;13.71;100.00
18755;BME280;35061;47.664;9.166;2022-10-16T01:43:28;101581.05;;;13.72;100.00
18755;BME280;35061;47.664;9.166;2022-10-16T01:45:59;101589.69;;;13.72;100.00
18755;BME280;35061;47.664;9.166;2022-10-16T01:48:29;101581.35;;;13.74;100.00
18755;BME280;35061;47.664;9.166;2022-10-16T01:51:02;101594.62;;;13.72;100.00
18755;BME280;35061;47.664;9.166;2022-10-16T01:53:31;101599.40;;;13.75;100.00
18755;BME280;35061;47.664;9.166;2022-10-16T01:56:00;101597.31;;;13.75;100.00
18755;BME280;35061;47.664;9.166;2022-10-16T01:58:33;101604.38;;;13.74;100.00
18755;BME280;35061;47.664;9.166;2022-10-16T02:01:04;101598.12;;;13.76;100.00
18755;BME280;35061;47.664;9.166;2022-10-16T02:03:33;101594.43;;;13.75;100.00
18755;BME280;35061;47.664;9.166;2022-10-16T02:06:01;101601.30;;;13.78;100.00
18755;BME280;35061;47.664;9.166;2022-10-16T02:08:30;101596.59;;;13.80;100.00
18755;BME280;35061;47.664;9.166;2022-10-16T02:10:59;101589.27;;;13.79;100.00
18755;BME280;35061;47.664;9.166;2022-10-16T02:13:33;101598.62;;;13.74;100.00
18755;BME280;35061;47.664;9.166;2022-10-16T02:16:03;101598.62;;;13.74;100.00
18755;BME280;35061;47.664;9.166;2022-10-16T02:18:31;101600.68;;;13.74;100.00
18755;BME280;35061;47.664;9.166;2022-10-16T02:24:03;101591.06;;;13.77;100.00
18755;BME280;35061;47.664;9.166;2022-10-16T02:26:44;101594.73;;;13.77;100.00
18755;BME280;35061;47.664;9.166;2022-10-16T02:29:16;101592.66;;;13.78;100.00
18755;BME280;35061;47.664;9.166;2022-10-16T02:31:47;101597.60;;;13.77;100.00
18755;BME280;35061;47.664;9.166;2022-10-16T02:34:19;101593.65;;;13.75;100.00
18755;BME280;35061;47.664;9.166;2022-10-16T02:36:50;101606.43;;;13.74;100.00
18755;BME280;35061;47.664;9.166;2022-10-16T02:39:19;101592.27;;;13.70;100.00
18755;BME280;35061;47.664;9.166;2022-10-16T02:41:47;101582.34;;;13.71;100.00
18755;BME280;35061;47.664;9.166;2022-10-16T02:44:15;101575.79;;;13.71;100.00
18755;BME280;35061;47.664;9.166;2022-10-16T02:46:43;101599.01;;;13.67;100.00
18755;BME280;35061;47.664;9.166;2022-10-16T02:49:11;101610.72;;;13.63;100.00
18755;BME280;35061;47.664;9.166;2022-10-16T02:51:38;101600.68;;;13.59;100.00
18755;BME280;35061;47.664;9.166;2022-10-16T02:54:06;101601.98;;;13.58;100.00
18755;BME280;35061;47.664;9.166;2022-10-16T02:56:34;101598.52;;;13.53;100.00
18755;BME280;35061;47.664;9.166;2022-10-16T02:59:01;101602.18;;;13.54;100.00
18755;BME280;35061;47.664;9.166;2022-10-16T03:01:29;101607.45;;;13.56;100.00
18755;BME280;35061;47.664;9.166;2022-10-16T03:03:57;101609.54;;;13.55;100.00
18755;BME280;35061;47.664;9.166;2022-10-16T03:06:25;101591.65;;;13.51;100.00
18755;BME280;35061;47.664;9.166;2022-10-16T03:08:52;101590.38;;;13.52;100.00
18755;BME280;35061;47.664;9.166;2022-10-16T03:11:20;101594.53;;;13.51;100.00
18755;BME280;35061;47.664;9.166;2022-10-16T03:13:48;101591.06;;;13.47;100.00
18755;BME280;35061;47.664;9.166;2022-10-16T03:16:15;101572.23;;;13.46;100.00
18755;BME280;35061;47.664;9.166;2022-10-16T03:18:43;101573.30;;;13.48;100.00
18755;BME280;35061;47.664;9.166;2022-10-16T03:21:11;101565.00;;;13.50;100.00
18755;BME280;35061;47.664;9.166;2022-10-16T03:23:38;101570.76;;;13.50;100.00
18755;BME280;35061;47.664;9.166;2022-10-16T03:26:06;101574.38;;;13.51;100.00
18755;BME280;35061;47.664;9.166;2022-10-16T03:28:33;101579.65;;;13.52;100.00
18755;BME280;35061;47.664;9.166;2022-10-16T03:31:01;101601.10;;;13.51;100.00
18755;BME280;35061;47.664;9.166;2022-10-16T03:33:29;101601.10;;;13.51;100.00
18755;BME280;35061;47.664;9.166;2022-10-16T03:35:57;101612.52;;;13.46;100.00
18755;BME280;35061;47.664;9.166;2022-10-16T03:38:24;101603.88;;;13.46;100.00
18755;BME280;35061;47.664;9.166;2022-10-16T03:40:52;101601.49;;;13.44;100.00
18755;BME280;35061;47.664;9.166;2022-10-16T03:43:20;101599.86;;;13.43;100.00
18755;BME280;35061;47.664;9.166;2022-10-16T03:45:47;101604.24;;;13.38;100.00
18755;BME280;35061;47.664;9.166;2022-10-16T03:48:18;101606.30;;;13.38;100.00
18755;BME280;35061;47.664;9.166;2022-10-16T03:50:45;101612.87;;;13.38;100.00
18755;BME280;35061;47.664;9.166;2022-10-16T03:53:15;101625.17;;;13.39;100.00
18755;BME280;35061;47.664;9.166;2022-10-16T03:55:43;101622.29;;;13.39;100.00
18755;BME280;35061;47.664;9.166;2022-10-16T03:58:11;101624.05;;;13.36;100.00
18755;BME280;35061;47.664;9.166;2022-10-16T04:00:45;101627.63;;;13.31;100.00
18755;BME280;35061;47.664;9.166;2022-10-16T04:03:15;101631.02;;;13.30;100.00
18755;BME280;35061;47.664;9.166;2022-10-16T04:05:43;101636.95;;;13.26;100.00
18755;BME280;35061;47.664;9.166;2022-10-16T04:08:10;101634.36;;;13.28;100.00
18755;BME280;35061;47.664;9.166;2022-10-16T04:10:38;101639.03;;;13.25;100.00
18755;BME280;35061;47.664;9.166;2022-10-16T04:13:05;101629.62;;;13.25;100.00
18755;BME280;35061;47.664;9.166;2022-10-16T04:15:33;101628.31;;;13.26;100.00
18755;BME280;35061;47.664;9.166;2022-10-16T04:18:01;101632.30;;;13.29;100.00
18755;BME280;35061;47.664;9.166;2022-10-16T04:20:28;101630.50;;;13.31;100.00
18755;BME280;35061;47.664;9.166;2022-10-16T04:22:57;101629.52;;;13.34;100.00
18755;BME280;35061;47.664;9.166;2022-10-16T04:25:25;101637.66;;;13.36;100.00
18755;BME280;35061;47.664;9.166;2022-10-16T04:27:53;101640.84;;;13.38;100.00
18755;BME280;35061;47.664;9.166;2022-10-16T04:30:21;101631.71;;;13.39;100.00
18755;BME280;35061;47.664;9.166;2022-10-16T04:32:50;101636.45;;;13.43;100.00
18755;BME280;35061;47.664;9.166;2022-10-16T04:35:20;101637.59;;;13.45;100.00
18755;BME280;35061;47.664;9.166;2022-10-16T04:37:47;101635.54;;;13.46;100.00
18755;BME280;35061;47.664;9.166;2022-10-16T04:40:15;101639.16;;;13.46;100.00
18755;BME280;35061;47.664;9.166;2022-10-16T04:42:43;101642.56;;;13.45;100.00
18755;BME280;35061;47.664;9.166;2022-10-16T04:45:11;101646.52;;;13.47;100.00
18755;BME280;35061;47.664;9.166;2022-10-16T04:47:42;101644.46;;;13.48;100.00
18755;BME280;35061;47.664;9.166;2022-10-16T04:50:10;101654.17;;;13.50;100.00
18755;BME280;35061;47.664;9.166;2022-10-16T04:52:38;101651.30;;;13.50;100.00
18755;BME280;35061;47.664;9.166;2022-10-16T04:55:06;101645.84;;;13.52;100.00
18755;BME280;35061;47.664;9.166;2022-10-16T04:57:34;101646.13;;;13.54;100.00
18755;BME280;35061;47.664;9.166;2022-10-16T05:00:03;101655.35;;;13.59;100.00
18755;BME280;35061;47.664;9.166;2022-10-16T05:02:31;101657.18;;;13.56;100.00
18755;BME280;35061;47.664;9.166;2022-10-16T05:04:59;101660.06;;;13.56;100.00
18755;BME280;35061;47.664;9.166;2022-10-16T05:07:27;101657.34;;;13.52;100.00
18755;BME280;35061;47.664;9.166;2022-10-16T05:09:54;101664.41;;;13.51;100.00
18755;BME280;35061;47.664;9.166;2022-10-16T05:12:22;101663.88;;;13.53;100.00
18755;BME280;35061;47.664;9.166;2022-10-16T05:14:50;101661.83;;;13.53;100.00
18755;BME280;35061;47.664;9.166;2022-10-16T05:17:17;101670.46;;;13.53;100.00
18755;BME280;35061;47.664;9.166;2022-10-16T05:19:45;101663.88;;;13.53;100.00
18755;BME280;35061;47.664;9.166;2022-10-16T05:22:13;101657.34;;;13.52;100.00
18755;BME280;35061;47.664;9.166;2022-10-16T05:24:40;101656.07;;;13.53;100.00
18755;BME280;35061;47.664;9.166;2022-10-16T05:27:08;101652.38;;;13.53;100.00
18755;BME280;35061;47.664;9.166;2022-10-16T05:29:36;101647.14;;;13.51;100.00
18755;BME280;35061;47.664;9.166;2022-10-16T05:32:03;101650.61;;;13.56;100.00
18755;BME280;35061;47.664;9.166;2022-10-16T05:34:31;101653.00;;;13.57;100.00
18755;BME280;35061;47.664;9.166;2022-10-16T05:36:59;101651.23;;;13.60;100.00
18755;BME280;35061;47.664;9.166;2022-10-16T05:39:26;101653.59;;;13.61;100.00
18755;BME280;35061;47.664;9.166;2022-10-16T05:41:54;101647.83;;;13.61;100.00
18755;BME280;35061;47.664;9.166;2022-10-16T05:44:22;101664.61;;;13.63;100.00
18755;BME280;35061;47.664;9.166;2022-10-16T05:46:49;101658.55;;;13.61;100.00
18755;BME280;35061;47.664;9.166;2022-10-16T05:49:17;101663.49;;;13.60;100.00
18755;BME280;35061;47.664;9.166;2022-10-16T05:51:45;101671.38;;;13.60;100.00
18755;BME280;35061;47.664;9.166;2022-10-16T05:54:13;101678.38;;;13.59;100.00
18755;BME280;35061;47.664;9.166;2022-10-16T05:56:40;101676.02;;;13.57;100.00
18755;BME280;35061;47.664;9.166;2022-10-16T05:59:08;101683.84;;;13.57;100.00
18755;BME280;35061;47.664;9.166;2022-10-16T06:01:36;101689.30;;;13.54;100.00
18755;BME280;35061;47.664;9.166;2022-10-16T06:04:04;101691.68;;;13.56;100.00
18755;BME280;35061;47.664;9.166;2022-10-16T06:06:31;101694.07;;;13.58;100.00
18755;BME280;35061;47.664;9.166;2022-10-16T06:08:59;101702.41;;;13.56;100.00
18755;BME280;35061;47.664;9.166;2022-10-16T06:11:29;101695.34;;;13.57;100.00
18755;BME280;35061;47.664;9.166;2022-10-16T06:14:00;101696.16;;;13.57;100.00
18755;BME280;35061;47.664;9.166;2022-10-16T06:16:29;101693.09;;;13.61;100.00
18755;BME280;35061;47.664;9.166;2022-10-16T06:18:57;101696.26;;;13.63;100.00
18755;BME280;35061;47.664;9.166;2022-10-16T06:21:28;101695.28;;;13.66;100.00
18755;BME280;35061;47.664;9.166;2022-10-16T06:23:56;101703.42;;;13.67;100.00
18755;BME280;35061;47.664;9.166;2022-10-16T06:26:26;101706.59;;;13.70;100.00
18755;BME280;35061;47.664;9.166;2022-10-16T06:28:58;101696.20;;;13.72;100.00
18755;BME280;35061;47.664;9.166;2022-10-16T06:31:27;101704.11;;;13.77;100.00
18755;BME280;35061;47.664;9.166;2022-10-16T06:33:58;101706.98;;;13.77;100.00
18755;BME280;35061;47.664;9.166;2022-10-16T06:36:26;101715.45;;;13.81;100.00
18755;BME280;35061;47.664;9.166;2022-10-16T06:38:54;101710.26;;;13.85;100.00
18755;BME280;35061;47.664;9.166;2022-10-16T06:41:22;101705.13;;;13.89;100.00
18755;BME280;35061;47.664;9.166;2022-10-16T06:43:50;101708.59;;;13.93;100.00
18755;BME280;35061;47.664;9.166;2022-10-16T06:46:22;101718.34;;;13.96;100.00
18755;BME280;35061;47.664;9.166;2022-10-16T06:48:50;101717.84;;;13.98;100.00
18755;BME280;35061;47.664;9.166;2022-10-16T06:51:23;101722.13;;;14.02;100.00
18755;BME280;35061;47.664;9.166;2022-10-16T06:53:53;101729.45;;;14.03;100.00
18755;BME280;35061;47.664;9.166;2022-10-16T06:56:31;101730.76;;;14.02;100.00
18755;BME280;35061;47.664;9.166;2022-10-16T06:58:59;101738.67;;;14.07;100.00
18755;BME280;35061;47.664;9.166;2022-10-16T07:01:28;101743.35;;;14.05;100.00
18755;BME280;35061;47.664;9.166;2022-10-16T07:03:56;101741.59;;;14.07;100.00
18755;BME280;35061;47.664;9.166;2022-10-16T07:06:25;101754.37;;;14.06;100.00
18755;BME280;35061;47.664;9.166;2022-10-16T07:08:53;101758.55;;;14.05;100.00
18755;BME280;35061;47.664;9.166;2022-10-16T07:11:22;101762.22;;;14.06;100.00
18755;BME280;35061;47.664;9.166;2022-10-16T07:13:51;101768.30;;;14.08;100.00
18755;BME280;35061;47.664;9.166;2022-10-16T07:16:29;101775.33;;;14.07;100.00
18755;BME280;35061;47.664;9.166;2022-10-16T07:18:59;101787.36;;;14.05;100.00
18755;BME280;35061;47.664;9.166;2022-10-16T07:21:32;101785.47;;;14.02;100.00
18755;BME280;35061;47.664;9.166;2022-10-16T07:24:05;101792.40;;;13.95;100.00
18755;BME280;35061;47.664;9.166;2022-10-16T07:26:35;101790.80;;;13.94;100.00
18755;BME280;35061;47.664;9.166;2022-10-16T07:29:03;101789.39;;;13.90;100.00
18755;BME280;35061;47.664;9.166;2022-10-16T07:31:31;101794.39;;;13.89;100.00
18755;BME280;35061;47.664;9.166;2022-10-16T07:33:59;101789.39;;;13.90;100.00
18755;BME280;35061;47.664;9.166;2022-10-16T07:36:27;101790.21;;;13.90;100.00
18755;BME280;35061;47.664;9.166;2022-10-16T07:38:55;101802.83;;;13.93;100.00
18755;BME280;35061;47.664;9.166;2022-10-16T07:41:26;101801.52;;;13.94;100.00
18755;BME280;35061;47.664;9.166;2022-10-16T07:43:54;101788.73;;;13.95;100.00
18755;BME280;35061;47.664;9.166;2022-10-16T07:46:22;101793.77;;;14.00;100.00
18755;BME280;35061;47.664;9.166;2022-10-16T07:48:50;101787.36;;;14.05;100.00
18755;BME280;35061;47.664;9.166;2022-10-16T07:51:23;101794.82;;;14.12;100.00
18755;BME280;35061;47.664;9.166;2022-10-16T07:53:52;101804.66;;;14.20;100.00
18755;BME280;35061;47.664;9.166;2022-10-16T07:56:19;101814.70;;;14.25;100.00
18755;BME280;35061;47.664;9.166;2022-10-16T07:58:48;101818.33;;;14.26;100.00
18755;BME280;35061;47.664;9.166;2022-10-16T08:01:17;101833.27;;;14.24;100.00
18755;BME280;35061;47.664;9.166;2022-10-16T08:03:50;101835.62;;;14.26;100.00
18755;BME280;35061;47.664;9.166;2022-10-16T08:13:12;101844.16;;;14.20;100.00
18755;BME280;35061;47.664;9.166;2022-10-16T08:15:43;101843.57;;;14.16;100.00
18755;BME280;35061;47.664;9.166;2022-10-16T08:18:13;101831.34;;;14.21;100.00
18755;BME280;35061;47.664;9.166;2022-10-16T08:20:42;101838.31;;;14.29;100.00
18755;BME280;35061;47.664;9.166;2022-10-16T08:23:11;101839.52;;;14.37;100.00
18755;BME280;35061;47.664;9.166;2022-10-16T08:25:40;101828.40;;;14.45;100.00
18755;BME280;35061;47.664;9.166;2022-10-16T08:28:09;101832.75;;;14.56;100.00
18755;BME280;35061;47.664;9.166;2022-10-16T08:30:37;101840.30;;;14.68;100.00
18755;BME280;35061;47.664;9.166;2022-10-16T08:33:05;101844.42;;;14.76;100.00
18755;BME280;35061;47.664;9.166;2022-10-16T08:35:33;101853.97;;;14.83;100.00
18755;BME280;35061;47.664;9.166;2022-10-16T08:38:05;101853.74;;;14.86;100.00
18755;BME280;35061;47.664;9.166;2022-10-16T08:40:36;101861.40;;;14.89;100.00
18755;BME280;35061;47.664;9.166;2022-10-16T08:48:18;101871.92;;;14.92;100.00
18755;BME280;35061;47.664;9.166;2022-10-16T08:50:47;101883.66;;;14.89;100.00
18755;BME280;35061;47.664;9.166;2022-10-16T08:53:22;101884.68;;;14.86;100.00
18755;BME280;35061;47.664;9.166;2022-10-16T08:55:53;101890.92;;;14.84;100.00
18755;BME280;35061;47.664;9.166;2022-10-16T08:58:27;101884.29;;;14.78;100.00
18755;BME280;35061;47.664;9.166;2022-10-16T09:00:58;101880.10;;;14.79;100.00
18755;BME280;35061;47.664;9.166;2022-10-16T09:03:57;101888.05;;;14.84;100.00
18755;BME280;35061;47.664;9.166;2022-10-16T09:06:50;101885.70;;;14.83;100.00
18755;BME280;35061;47.664;9.166;2022-10-16T09:22:36;101892.10;;;15.07;100.00
18755;BME280;35061;47.664;9.166;2022-10-16T09:25:18;101897.46;;;15.15;100.00
18755;BME280;35061;47.664;9.166;2022-10-16T09:27:48;101888.38;;;15.22;100.00
18755;BME280;35061;47.664;9.166;2022-10-16T09:30:21;101886.38;;;15.28;100.00
18755;BME280;35061;47.664;9.166;2022-10-16T09:32:51;101879.71;;;15.37;100.00
18755;BME280;35061;47.664;9.166;2022-10-16T09:35:22;101881.87;;;15.42;100.00
18755;BME280;35061;47.664;9.166;2022-10-16T09:37:54;101890.40;;;15.52;100.00
18755;BME280;35061;47.664;9.166;2022-10-16T09:40:33;101899.42;;;15.59;100.00
18755;BME280;35061;47.664;9.166;2022-10-16T09:43:12;101902.96;;;15.69;100.00
18755;BME280;35061;47.664;9.166;2022-10-16T09:46:06;101904.63;;;15.76;100.00
18755;BME280;35061;47.664;9.166;2022-10-16T09:48:44;101907.60;;;15.82;100.00
18755;BME280;35061;47.664;9.166;2022-10-16T09:51:35;101905.09;;;15.89;100.00
18755;BME280;35061;47.664;9.166;2022-10-16T09:56:37;101903.41;;;16.03;100.00
18755;BME280;35061;47.664;9.166;2022-10-16T09:59:14;101898.54;;;16.10;100.00
18755;BME280;35061;47.664;9.166;2022-10-16T10:01:53;101886.61;;;16.23;100.00
18755;BME280;35061;47.664;9.166;2022-10-16T10:04:23;101889.39;;;16.38;100.00
18755;BME280;35061;47.664;9.166;2022-10-16T10:06:55;101898.45;;;16.51;100.00
18755;BME280;35061;47.664;9.166;2022-10-16T10:09:24;101895.41;;;16.60;99.30
18755;BME280;35061;47.664;9.166;2022-10-16T10:12:03;101895.24;;;16.70;98.50
18755;BME280;35061;47.664;9.166;2022-10-16T10:14:39;101893.15;;;16.76;94.68
18755;BME280;35061;47.664;9.166;2022-10-16T10:19:47;101897.04;;;16.99;96.71
18755;BME280;35061;47.664;9.166;2022-10-16T10:30:13;101881.87;;;17.42;95.76
18755;BME280;35061;47.664;9.166;2022-10-16T10:32:49;101878.98;;;17.42;94.58
18755;BME280;35061;47.664;9.166;2022-10-16T10:35:25;101882.42;;;17.47;93.90
18755;BME280;35061;47.664;9.166;2022-10-16T10:38:16;101873.73;;;17.47;92.99
18755;BME280;35061;47.664;9.166;2022-10-16T10:40:51;101874.28;;;17.51;91.60
18755;BME280;35061;47.664;9.166;2022-10-16T10:46:05;101890.70;;;17.65;91.75
18755;BME280;35061;47.664;9.166;2022-10-16T10:54:00;101875.23;;;17.85;89.41
18755;BME280;35061;47.664;9.166;2022-10-16T10:57:08;101876.05;;;17.92;89.68
18755;BME280;35061;47.664;9.166;2022-10-16T11:02:54;101872.71;;;18.10;87.75
18755;BME280;35061;47.664;9.166;2022-10-16T11:07:58;101878.27;;;18.25;86.82
18755;BME280;35061;47.664;9.166;2022-10-16T11:10:33;101868.82;;;18.31;84.63
18755;BME280;35061;47.664;9.166;2022-10-16T11:15:58;101865.45;;;18.49;82.04
18755;BME280;35061;47.664;9.166;2022-10-16T11:21:02;101851.72;;;18.61;77.28
18755;BME280;35061;47.664;9.166;2022-10-16T11:26:16;101846.22;;;18.75;78.00
18755;BME280;35061;47.664;9.166;2022-10-16T11:28:49;101845.66;;;18.82;76.79
18755;BME280;35061;47.664;9.166;2022-10-16T11:31:40;101841.97;;;18.87;75.59
18755;BME280;35061;47.664;9.166;2022-10-16T11:34:28;101836.94;;;18.93;73.30
18755;BME280;35061;47.664;9.166;2022-10-16T11:37:16;101838.84;;;19.02;75.14
18755;BME280;35061;47.664;9.166;2022-10-16T11:39:45;101836.19;;;19.10;72.92
18755;BME280;35061;47.664;9.166;2022-10-16T11:42:37;101822.16;;;19.14;74.46
18755;BME280;35061;47.664;9.166;2022-10-16T11:45:17;101827.68;;;19.23;72.17
18755;BME280;35061;47.664;9.166;2022-10-16T11:48:27;101819.21;;;19.31;72.13
18755;BME280;35061;47.664;9.166;2022-10-16T11:51:08;101819.18;;;19.43;72.61
18755;BME280;35061;47.664;9.166;2022-10-16T11:56:12;101812.02;;;19.61;72.41
18755;BME280;35061;47.664;9.166;2022-10-16T11:59:02;101811.43;;;19.68;71.47
18755;BME280;35061;47.664;9.166;2022-10-16T12:01:46;101806.16;;;19.72;70.88
18755;BME280;35061;47.664;9.166;2022-10-16T12:04:21;101796.06;;;19.79;71.22
18755;BME280;35061;47.664;9.166;2022-10-16T12:07:07;101801.85;;;19.85;69.98
18755;BME280;35061;47.664;9.166;2022-10-16T12:09:40;101794.69;;;19.91;67.74
18755;BME280;35061;47.664;9.166;2022-10-16T12:12:37;101802.08;;;19.98;67.92
18755;BME280;35061;47.664;9.166;2022-10-16T12:17:53;101800.38;;;20.14;68.30
18755;BME280;35061;47.664;9.166;2022-10-16T12:20:30;101798.48;;;20.22;68.51
18755;BME280;35061;47.664;9.166;2022-10-16T12:23:06;101792.92;;;20.25;66.20
18755;BME280;35061;47.664;9.166;2022-10-16T12:25:36;101790.01;;;20.25;67.13
18755;BME280;35061;47.664;9.166;2022-10-16T12:28:17;101790.24;;;20.27;67.59
18755;BME280;35061;47.664;9.166;2022-10-16T12:30:54;101796.06;;;20.27;68.12
18755;BME280;35061;47.664;9.166;2022-10-16T12:33:26;101787.33;;;20.27;67.31
18755;BME280;35061;47.664;9.166;2022-10-16T12:35:55;101787.30;;;20.32;68.64
18755;BME280;35061;47.664;9.166;2022-10-16T12:38:36;101781.18;;;20.36;68.89
18755;BME280;35061;47.664;9.166;2022-10-16T12:41:08;101783.27;;;20.41;69.49
18755;BME280;35061;47.664;9.166;2022-10-16T12:43:42;101784.29;;;20.44;70.62
18755;BME280;35061;47.664;9.166;2022-10-16T12:48:38;101772.87;;;20.52;71.32
18755;BME280;35061;47.664;9.166;2022-10-16T12:51:33;101778.08;;;20.59;71.21
18755;BME280;35061;47.664;9.166;2022-10-16T12:54:10;101766.40;;;20.64;70.75
18755;BME280;35061;47.664;9.166;2022-10-16T13:14:15;101775.49;;;20.86;67.75
18755;BME280;35061;47.664;9.166;2022-10-16T13:17:09;101773.14;;;20.84;68.27
18755;BME280;35061;47.664;9.166;2022-10-16T13:19:52;101778.20;;;20.78;67.30
18755;BME280;35061;47.664;9.166;2022-10-16T13:22:25;101769.21;;;20.76;67.58
18755;BME280;35061;47.664;9.166;2022-10-16T13:25:02;101765.29;;;20.73;68.07
18755;BME280;35061;47.664;9.166;2022-10-16T13:28:04;101769.54;;;20.72;67.91
18755;BME280;35061;47.664;9.166;2022-10-16T13:30:52;101761.10;;;20.69;68.05
18755;BME280;35061;47.664;9.166;2022-10-16T13:33:38;101763.75;;;20.67;67.82
18755;BME280;35061;47.664;9.166;2022-10-16T13:36:19;101764.05;;;20.63;67.67
18755;BME280;35061;47.664;9.166;2022-10-16T13:38:46;101768.52;;;20.64;68.47
18755;BME280;35061;47.664;9.166;2022-10-16T13:41:18;101768.30;;;20.62;69.80
18755;BME280;35061;47.664;9.166;2022-10-16T13:43:49;101779.13;;;20.61;70.69
18755;BME280;35061;47.664;9.166;2022-10-16T13:46:22;101777.03;;;20.62;70.33
18755;BME280;35061;47.664;9.166;2022-10-16T13:49:02;101772.29;;;20.59;69.56
18755;BME280;35061;47.664;9.166;2022-10-16T13:51:31;101770.95;;;20.60;70.34
18755;BME280;35061;47.664;9.166;2022-10-16T13:53:59;101776.77;;;20.60;70.66
18755;BME280;35061;47.664;9.166;2022-10-16T13:56:30;101781.28;;;20.61;70.74
18755;BME280;35061;47.664;9.166;2022-10-16T13:59:05;101779.13;;;20.61;70.52
18755;BME280;35061;47.664;9.166;2022-10-16T14:01:40;101770.16;;;20.59;70.15
18755;BME280;35061;47.664;9.166;2022-10-16T14:04:11;101773.59;;;20.58;70.26
18755;BME280;35061;47.664;9.166;2022-10-16T14:06:45;101771.50;;;20.58;69.80
18755;BME280;35061;47.664;9.166;2022-10-16T14:09:29;101776.27;;;20.56;69.92
18755;BME280;35061;47.664;9.166;2022-10-16T14:12:00;101780.27;;;20.53;68.68
18755;BME280;35061;47.664;9.166;2022-10-16T14:14:35;101776.87;;;20.48;68.86
18755;BME280;35061;47.664;9.166;2022-10-16T14:17:17;101771.08;;;20.43;68.22
18755;BME280;35061;47.664;9.166;2022-10-16T14:19:47;101780.37;;;20.41;68.35
18755;BME280;35061;47.664;9.166;2022-10-16T14:22:33;101775.88;;;20.40;68.41
18755;BME280;35061;47.664;9.166;2022-10-16T14:28:16;101780.43;;;20.35;68.78
18755;BME280;35061;47.664;9.166;2022-10-16T14:30:54;101776.21;;;20.31;69.61
18755;BME280;35061;47.664;9.166;2022-10-16T14:33:30;101773.86;;;20.29;69.41
18755;BME280;35061;47.664;9.166;2022-10-16T14:38:42;101773.66;;;20.21;70.17
18755;BME280;35061;47.664;9.166;2022-10-16T14:41:10;101771.50;;;20.22;71.20
18755;BME280;35061;47.664;9.166;2022-10-16T14:43:42;101781.05;;;20.22;71.29
18755;BME280;35061;47.664;9.166;2022-10-16T14:46:21;101774.97;;;20.20;70.91
18755;BME280;35061;47.664;9.166;2022-10-16T14:49:02;101775.98;;;20.23;70.96